createdAt,value
2022-10-11T00:32:50.468Z,2.45
2022-10-11T00:40:16.646Z,2.60
2022-10-11T00:55:25.701Z,2.85
2022-10-11T00:57:53.582Z,2.92
2022-10-11T01:00:21.268Z,2.47
2022-10-11T01:02:48.949Z,2.92
2022-10-11T01:05:29.312Z,2.70
2022-10-11T01:07:57.681Z,2.83
2022-10-11T01:10:25.091Z,2.58
2022-10-11T01:13:04.447Z,2.90
2022-10-11T01:53:34.603Z,2.47
2022-10-11T01:56:09.758Z,2.22
2022-10-11T01:58:49.327Z,2.47
2022-10-11T02:01:26.987Z,2.30
2022-10-11T02:04:01.861Z,2.50
2022-10-11T02:09:08.250Z,2.88
2022-10-11T02:11:36.423Z,2.85
2022-10-11T02:14:09.352Z,2.40
2022-10-11T02:16:40.509Z,2.92
2022-10-11T02:21:39.585Z,2.60
2022-10-11T02:24:12.345Z,2.42
2022-10-11T02:39:12.318Z,2.72
2022-10-11T02:41:42.973Z,3.22
2022-10-11T02:44:13.657Z,3.13
2022-10-11T05:31:08.251Z,6.10
2022-10-11T05:33:35.689Z,6.72
2022-10-11T05:36:03.114Z,6.05
2022-10-11T05:38:31.823Z,6.32
2022-10-11T05:40:59.983Z,6.68
2022-10-11T05:53:14.384Z,7.00
2022-10-11T05:55:43.949Z,6.82
2022-10-11T05:58:15.152Z,6.90
2022-10-11T06:08:06.108Z,6.22
2022-10-11T06:10:33.119Z,6.28
2022-10-11T06:13:01.565Z,6.28
2022-10-11T06:15:28.619Z,6.20
2022-10-11T06:17:55.665Z,8.75
2022-10-11T06:20:25.129Z,9.43
2022-10-11T06:32:41.688Z,5.50
2022-10-11T07:19:19.997Z,2.70
2022-10-11T10:57:49.867Z,2.70
2022-10-11T11:00:19.617Z,2.30
2022-10-11T11:02:55.157Z,2.38
2022-10-11T11:05:33.862Z,2.17
2022-10-11T11:08:08.984Z,2.30
2022-10-11T11:10:42.183Z,1.73
2022-10-11T11:13:21.912Z,2.40
2022-10-11T11:15:55.880Z,2.00
2022-10-11T11:18:29.814Z,1.77
2022-10-11T11:21:23.235Z,2.00
2022-10-11T11:39:06.876Z,2.47
2022-10-11T11:41:37.401Z,1.98
2022-10-11T11:44:12.012Z,2.60
2022-10-11T11:46:44.536Z,2.00
2022-10-11T11:49:17.639Z,2.10
2022-10-11T11:51:46.220Z,1.88
2022-10-11T11:54:24.811Z,1.75
2022-10-11T11:57:00.499Z,1.60
2022-10-11T11:59:36.258Z,2.13
2022-10-11T12:02:25.091Z,2.25
2022-10-11T12:04:52.968Z,2.13
2022-10-11T12:33:13.443Z,1.80
2022-10-11T14:21:51.536Z,1.70
2022-10-11T14:26:49.335Z,1.73
2022-10-11T14:32:31.873Z,1.45
2022-10-11T14:47:16.370Z,2.10
2022-10-11T14:49:44.917Z,1.83
2022-10-11T14:59:04.331Z,1.52
2022-10-11T15:01:31.831Z,1.65
2022-10-11T15:06:01.981Z,1.83
2022-10-11T15:08:29.158Z,2.10
2022-10-11T15:10:56.189Z,1.95
2022-10-11T15:13:23.550Z,1.55
2022-10-11T15:20:46.749Z,1.20
2022-10-11T15:23:15.681Z,2.13
2022-10-11T15:25:42.955Z,1.60
2022-10-11T15:28:18.907Z,1.48
2022-10-11T15:30:46.047Z,1.60
2022-10-11T15:33:14.959Z,1.70
2022-10-11T15:35:42.323Z,1.67
2022-10-11T15:40:43.357Z,1.88
2022-10-11T15:43:10.411Z,2.00
2022-10-11T15:57:58.920Z,1.80
2022-10-11T16:00:26.405Z,2.10
2022-10-11T16:02:54.133Z,2.33
2022-10-11T16:05:21.913Z,1.67
2022-10-11T16:07:48.957Z,1.60
2022-10-11T16:10:16.176Z,1.90
2022-10-11T16:12:43.292Z,2.00
2022-10-11T16:15:12.366Z,1.92
2022-10-11T16:17:39.574Z,1.67
2022-10-11T16:20:07.492Z,2.20
2022-10-11T16:25:02.951Z,2.30
2022-10-11T16:32:26.133Z,1.90
2022-10-11T16:49:38.935Z,1.70
2022-10-11T16:52:06.052Z,2.08
2022-10-11T16:54:33.374Z,2.17
2022-10-11T16:57:00.408Z,2.08
2022-10-11T16:59:28.129Z,1.80
2022-10-11T17:01:56.168Z,2.28
2022-10-11T17:09:21.376Z,2.70
2022-10-11T17:11:48.405Z,2.60
2022-10-11T17:14:15.643Z,2.65
2022-10-11T17:24:08.096Z,2.60
2022-10-11T17:26:35.166Z,2.80
2022-10-11T17:29:02.852Z,3.55
2022-10-11T17:31:30.513Z,2.33
2022-10-11T17:41:25.972Z,2.75
2022-10-11T17:43:55.248Z,2.63
2022-10-11T17:46:22.588Z,2.78
2022-10-11T17:53:47.815Z,2.63
2022-10-11T18:18:33.158Z,2.90
2022-10-11T18:21:00.611Z,2.70
2022-10-11T18:23:27.677Z,2.88
2022-10-11T18:25:55.153Z,4.63
2022-10-11T18:30:49.255Z,5.53
2022-10-11T18:33:17.576Z,5.72
2022-10-11T18:35:44.605Z,6.15
2022-10-11T18:38:12.133Z,6.30
2022-10-11T18:40:44.755Z,6.30
2022-10-11T18:45:41.152Z,5.70
2022-10-11T18:48:09.054Z,5.80
2022-10-11T18:50:37.713Z,6.03
2022-10-11T18:55:32.619Z,5.80
2022-10-11T18:57:59.611Z,6.55
2022-10-11T19:00:41.969Z,6.10
2022-10-11T19:03:09.005Z,6.95
2022-10-11T19:05:39.864Z,7.32
2022-10-11T19:08:06.872Z,7.18
2022-10-11T20:07:20.605Z,6.40
2022-10-11T20:09:47.665Z,6.95
2022-10-11T20:56:34.294Z,9.30
2022-10-11T21:06:26.040Z,9.60
2022-10-11T21:50:54.643Z,18.25
2022-10-11T22:18:00.585Z,9.70
